Ingleside on the Bay, Texas
Current Conditions -  °F | °C
As of 9:15 PM on Friday 21 Nov 2014 (Local Time) from KTFP Reporting Station
Overcast Overcast  
Wind Chill: 72°   Ceiling: 7000
Heat Index: 72°   Visibility: 10mi
Dew Point: 65°   Wind: 14mph
Humidity: 80%   Direction: 130°SE
Pressure: 30.05"   Gusts: 18mph
Location:  27.8594°N, 97.2055°W
Report Text: KTFP 220315Z AUTO 13012G16KT 10SM BKN070 OVC090 22/18 A3005 RMK AO2 T02200184
Loading
Personal Weather Stations






























Interactive Weather Map New forecast layout! Learn more

10-Day Weather Forecast

Advertisements
Track Severe Weather on mobile